Time;durP1;ratioP1;P1;durP2;ratioP2;P2;SDS_P1;SDS_P2;PMS_P1;PMS_P2;Temp;Humidity;BMP_temperature;BMP_pressure;BME280_temperature;BME280_humidity;BME280_pressure;Samples;Min_cycle;Max_cycle;Signal;HPM_P1;HPM_P2
2023/04/17 00:09:50;;;;;;;1999.90;999.90;;;9.60;99.90;;;;;;6700098;88;20306;-76
2023/04/17 00:19:51;;;;;;;1999.90;999.90;;;9.50;99.90;;;;;;6700049;88;20195;-78
2023/04/17 00:29:52;;;;;;;1999.90;999.90;;;9.50;99.90;;;;;;6703487;88;20766;-75
2023/04/17 00:39:52;;;;;;;1999.90;999.90;;;9.50;99.90;;;;;;6700568;88;20183;-78
2023/04/17 00:49:53;;;;;;;1999.90;999.90;;;9.50;99.90;;;;;;6706583;88;20267;-77
2023/04/17 00:59:56;;;;;;;1999.90;999.90;;;9.40;99.90;;;;;;6712114;88;20241;-77
2023/04/17 01:09:57;;;;;;;1999.90;999.90;;;9.50;99.90;;;;;;6707564;88;20670;-77
2023/04/17 01:19:58;;;;;;;1999.90;999.90;;;9.50;99.90;;;;;;6702059;88;20199;-77
2023/04/17 01:29:58;;;;;;;1999.90;999.90;;;9.50;99.90;;;;;;6708022;88;20712;-78
2023/04/17 01:39:59;;;;;;;1999.90;999.90;;;9.40;99.90;;;;;;6703221;88;20202;-78
2023/04/17 01:50:00;;;;;;;1999.90;999.90;;;9.50;99.90;;;;;;6706471;88;20721;-77
2023/04/17 02:00:00;;;;;;;1999.90;999.90;;;9.40;99.90;;;;;;6707062;88;20289;-77
2023/04/17 02:10:01;;;;;;;1999.90;999.90;;;9.40;99.90;;;;;;6705299;88;20843;-77
2023/04/17 02:20:05;;;;;;;1999.90;999.90;;;9.40;99.90;;;;;;6703491;88;20198;-77
2023/04/17 02:30:07;;;;;;;1999.90;999.90;;;9.30;99.90;;;;;;6712392;88;20226;-75
2023/04/17 02:40:08;;;;;;;1999.90;999.90;;;9.30;99.90;;;;;;6736897;77;20295;-78
2023/04/17 02:50:10;;;;;;;1999.90;999.90;;;9.40;99.90;;;;;;6721963;88;21009;-78
2023/04/17 03:00:14;;;;;;;1999.90;999.90;;;9.30;99.90;;;;;;6721051;88;20320;-76
2023/04/17 03:10:14;;;;;;;1999.90;999.90;;;9.40;99.90;;;;;;6724908;88;20207;-78
2023/04/17 03:20:15;;;;;;;1999.90;999.90;;;9.40;99.90;;;;;;6727690;88;20242;-78
2023/04/17 03:30:15;;;;;;;1999.90;999.90;;;9.40;99.90;;;;;;6724437;88;20280;-79
2023/04/17 03:40:16;;;;;;;1999.90;999.90;;;9.40;99.90;;;;;;6722532;88;20220;-78
2023/04/17 03:50:17;;;;;;;1999.90;999.90;;;9.40;99.90;;;;;;6720226;88;20240;-77
2023/04/17 04:00:18;;;;;;;1999.90;999.90;;;9.40;99.90;;;;;;6725496;88;20346;-78
2023/04/17 04:10:18;;;;;;;1999.90;999.90;;;9.50;99.90;;;;;;6722289;88;20629;-78
2023/04/17 04:20:21;;;;;;;1999.90;999.90;;;9.50;99.90;;;;;;6726037;88;20404;-77
2023/04/17 04:30:24;;;;;;;1999.90;999.90;;;9.60;99.90;;;;;;6735739;88;20228;-78
2023/04/17 04:40:25;;;;;;;1999.90;999.90;;;9.50;99.90;;;;;;6727242;88;20218;-78
2023/04/17 04:50:25;;;;;;;1999.90;999.90;;;9.40;99.90;;;;;;6727719;88;20206;-78
2023/04/17 05:00:26;;;;;;;1999.90;999.90;;;9.50;99.90;;;;;;6728216;88;20198;-78
2023/04/17 05:10:26;;;;;;;1999.90;999.90;;;9.60;99.90;;;;;;6724915;88;20243;-77
2023/04/17 05:20:27;;;;;;;1999.90;999.90;;;9.50;99.90;;;;;;6727747;88;20302;-78
2023/04/17 05:30:27;;;;;;;1999.90;999.90;;;9.50;99.90;;;;;;6721978;88;20196;-76
2023/04/17 05:40:28;;;;;;;1999.90;999.90;;;9.50;99.90;;;;;;6721441;88;20226;-76
2023/04/17 05:50:29;;;;;;;1999.90;999.90;;;9.50;99.90;;;;;;6721183;88;20530;-76
2023/04/17 06:00:29;;;;;;;1999.90;999.90;;;9.50;99.90;;;;;;6717884;88;20929;-76
2023/04/17 06:10:32;;;;;;;1999.90;999.90;;;9.50;99.90;;;;;;6720139;88;20668;-76
2023/04/17 06:20:32;;;;;;;1999.90;999.90;;;9.60;99.90;;;;;;6719691;88;20299;-76
2023/04/17 06:30:33;;;;;;;1999.90;999.90;;;9.70;99.90;;;;;;6728738;88;20311;-76
2023/04/17 06:40:34;;;;;;;1999.90;999.90;;;9.90;99.90;;;;;;6726730;88;20219;-75
2023/04/17 06:50:35;;;;;;;1999.90;999.90;;;10.00;99.90;;;;;;6730277;88;20230;-75
2023/04/17 07:00:35;;;;;;;1999.90;999.90;;;10.00;99.90;;;;;;6732208;88;20177;-75
2023/04/17 07:10:36;;;;;;;1999.90;999.90;;;10.00;99.90;;;;;;6725146;88;20205;-76
2023/04/17 07:20:36;;;;;;;1999.90;999.90;;;10.10;99.90;;;;;;6725795;88;20205;-75
2023/04/17 07:30:37;;;;;;;1999.90;999.90;;;10.10;99.90;;;;;;6724363;88;20240;-75
2023/04/17 07:40:38;;;;;;;1999.90;999.90;;;10.00;99.90;;;;;;6735860;88;20205;-75
2023/04/17 07:50:38;;;;;;;1999.90;999.90;;;10.10;99.90;;;;;;6733922;88;20727;-75
2023/04/17 08:00:42;;;;;;;1999.90;999.90;;;10.20;99.90;;;;;;6735282;88;20802;-75
2023/04/17 08:10:42;;;;;;;1999.90;999.90;;;10.50;99.90;;;;;;6724505;88;20185;-75
2023/04/17 08:20:43;;;;;;;1999.90;999.90;;;11.10;99.90;;;;;;6723604;88;20719;-75
2023/04/17 08:30:43;;;;;;;1999.90;999.90;;;11.90;99.90;;;;;;6729245;88;20648;-75
2023/04/17 08:40:51;;;;;;;1999.90;999.90;;;12.00;99.90;;;;;;6744770;77;20199;-77
2023/04/17 08:50:52;;;;;;;1999.90;999.90;;;12.10;99.90;;;;;;6742866;88;20663;-76
2023/04/17 09:00:53;;;;;;;1999.90;999.90;;;12.60;99.90;;;;;;6740363;88;20204;-76
2023/04/17 09:10:54;;;;;;;1999.90;999.90;;;13.40;99.90;;;;;;6739715;88;20270;-77
2023/04/17 09:20:57;;;;;;;1999.90;999.90;;;13.50;99.90;;;;;;6737320;88;20198;-78
2023/04/17 09:31:00;;;;;;;1999.90;999.90;;;14.00;99.90;;;;;;6736403;88;20232;-77
2023/04/17 09:41:00;;;;;;;1999.90;999.90;;;14.40;99.90;;;;;;6732697;88;20638;-77
2023/04/17 09:51:01;;;;;;;1999.90;999.90;;;14.90;99.90;;;;;;6733330;88;20688;-79
2023/04/17 10:01:02;;;;;;;1999.90;999.90;;;14.90;99.90;;;;;;6733866;88;20315;-76
2023/04/17 10:11:06;;;;;;;1999.90;999.90;;;15.80;99.90;;;;;;6733719;88;20185;-76
2023/04/17 10:21:21;;;;;;;1999.90;999.90;;;16.80;99.90;;;;;;6723223;88;20445;-77
2023/04/17 10:31:24;;;;;;;1999.90;999.90;;;18.80;99.90;;;;;;6725570;88;20280;-77
2023/04/17 10:41:26;;;;;;;1999.90;999.90;;;19.00;99.90;;;;;;6718839;88;20320;-77
2023/04/17 10:51:26;;;;;;;1999.90;999.90;;;18.50;99.90;;;;;;6728112;88;20340;-77
2023/04/17 11:01:41;;;;;;;1999.90;999.90;;;17.80;99.90;;;;;;6729211;88;20180;-77
2023/04/17 11:11:42;;;;;;;;;;;18.10;99.90;;;;;;6727030;88;20717;-78
2023/04/17 11:21:47;;;;;;;1999.90;999.90;;;17.60;99.90;;;;;;6732676;88;20095;-79
2023/04/17 11:31:50;;;;;;;1999.90;999.90;;;18.70;99.90;;;;;;6732079;87;20182;-76
2023/04/17 11:41:52;;;;;;;1999.90;999.90;;;18.80;99.90;;;;;;6740607;87;20576;-78
2023/04/17 11:51:53;;;;;;;1999.90;999.90;;;18.80;99.90;;;;;;6724023;88;20223;-77
2023/04/17 12:01:53;;;;;;;1999.90;999.90;;;19.40;99.30;;;;;;6725624;88;20691;-77
2023/04/17 12:11:54;;;;;;;1999.90;999.90;;;20.00;99.00;;;;;;6727483;88;20237;-78
2023/04/17 12:21:55;;;;;;;1999.90;999.90;;;18.90;99.50;;;;;;6724069;88;20190;-77
2023/04/17 12:31:55;;;;;;;1999.90;999.90;;;19.00;97.80;;;;;;6728243;88;20209;-79
2023/04/17 12:41:56;;;;;;;1999.90;999.90;;;17.70;99.90;;;;;;6724756;88;20300;-78
2023/04/17 12:51:56;;;;;;;1999.90;999.90;;;17.90;98.80;;;;;;6725783;88;20769;-78
2023/04/17 13:01:57;;;;;;;1999.90;999.90;;;17.30;99.40;;;;;;6727621;88;20618;-78
2023/04/17 13:11:57;;;;;;;1999.90;999.90;;;17.00;99.90;;;;;;6723461;88;20210;-78
2023/04/17 13:21:58;;;;;;;1999.90;999.90;;;17.40;99.90;;;;;;6727205;88;20219;-78
2023/04/17 13:31:59;;;;;;;1999.90;999.90;;;18.10;98.80;;;;;;6730616;88;20231;-77
2023/04/17 13:42:00;;;;;;;1999.90;999.90;;;17.10;99.30;;;;;;6748825;88;20246;-78
2023/04/17 13:52:00;;;;;;;1999.90;999.90;;;16.50;99.50;;;;;;6735932;88;20193;-78
2023/04/17 14:02:02;;;;;;;1999.90;999.90;;;16.40;98.50;;;;;;6732668;88;20225;-78
2023/04/17 14:12:03;;;;;;;1999.90;999.90;;;16.40;98.30;;;;;;6734357;88;20202;-79
2023/04/17 14:22:03;;;;;;;1999.90;999.90;;;16.20;98.40;;;;;;6735363;88;20188;-79
2023/04/17 14:32:05;;;;;;;1999.90;999.90;;;17.00;97.00;;;;;;6736921;88;20593;-79
2023/04/17 14:42:05;;;;;;;1999.90;999.90;;;17.20;95.70;;;;;;6728526;88;20308;-78
2023/04/17 14:52:06;;;;;;;1999.90;999.90;;;16.50;96.80;;;;;;6730925;88;20181;-78
2023/04/17 15:02:06;;;;;;;1999.90;999.90;;;16.30;96.60;;;;;;6726012;88;20302;-78
2023/04/17 15:12:07;;;;;;;1999.90;999.90;;;16.00;98.70;;;;;;6728545;88;20667;-78
2023/04/17 15:22:07;;;;;;;1999.90;999.90;;;15.60;99.90;;;;;;6732329;88;20206;-77
2023/04/17 15:32:08;;;;;;;1999.90;999.90;;;15.50;99.80;;;;;;6722101;88;20515;-77
2023/04/17 15:42:09;;;;;;;1999.90;999.90;;;15.30;99.80;;;;;;6724448;88;20213;-77
2023/04/17 15:52:10;;;;;;;1999.90;999.90;;;15.30;99.90;;;;;;6745235;88;20186;-77
2023/04/17 16:02:13;;;;;;;1999.90;999.90;;;15.40;99.90;;;;;;6726516;88;20746;-77
2023/04/17 16:12:14;;;;;;;1999.90;999.90;;;16.20;99.40;;;;;;6733070;88;20243;-78
2023/04/17 16:22:17;;;;;;;1999.90;999.90;;;16.30;98.80;;;;;;6733452;88;20205;-77
2023/04/17 16:32:19;;;;;;;1999.90;999.90;;;15.80;98.60;;;;;;6729112;88;20206;-77
2023/04/17 16:42:19;;;;;;;1999.90;999.90;;;15.50;98.50;;;;;;6726130;88;20644;-76
2023/04/17 16:52:20;;;;;;;1999.90;999.90;;;15.10;98.70;;;;;;6732239;88;20250;-78
2023/04/17 17:02:20;;;;;;;1999.90;999.90;;;15.00;98.80;;;;;;6732005;88;20208;-78
2023/04/17 17:12:21;;;;;;;1999.90;999.90;;;14.80;99.30;;;;;;6739929;88;20682;-77
2023/04/17 17:22:21;;;;;;;1999.90;999.90;;;14.60;99.70;;;;;;6737086;88;21040;-78
2023/04/17 17:32:22;;;;;;;1999.90;999.90;;;14.50;98.80;;;;;;6736546;88;20325;-79
2023/04/17 17:42:23;;;;;;;1999.90;999.90;;;14.50;97.50;;;;;;6737389;88;20374;-79
2023/04/17 17:52:23;;;;;;;1999.90;999.90;;;14.30;97.80;;;;;;6732807;88;20717;-80
2023/04/17 18:02:24;;;;;;;1999.90;999.90;;;13.90;98.60;;;;;;6733244;88;20197;-79
2023/04/17 18:12:24;;;;;;;1999.90;999.90;;;13.50;98.70;;;;;;6731652;88;20197;-77
2023/04/17 18:22:25;;;;;;;1999.90;999.90;;;13.20;99.90;;;;;;6732907;88;20527;-78
2023/04/17 18:32:26;;;;;;;1999.90;999.90;;;13.00;99.90;;;;;;6735004;88;20264;-78
2023/04/17 18:42:26;;;;;;;1999.90;999.90;;;12.60;99.90;;;;;;6727642;88;20729;-78
2023/04/17 18:52:27;;;;;;;1999.90;999.90;;;12.30;99.90;;;;;;6729679;88;20249;-77
2023/04/17 19:02:27;;;;;;;1999.90;999.90;;;12.00;99.90;;;;;;6729053;88;20256;-77
2023/04/17 19:12:29;;;;;;;1999.90;999.90;;;11.60;99.90;;;;;;6723039;88;20265;-76
2023/04/17 19:22:29;;;;;;;1999.90;999.90;;;11.30;99.90;;;;;;6721889;88;20640;-78
2023/04/17 19:32:30;;;;;;;1999.90;999.90;;;11.10;99.90;;;;;;6727822;88;20286;-77
2023/04/17 19:42:31;;;;;;;1999.90;999.90;;;10.80;99.90;;;;;;6734019;88;20307;-78
2023/04/17 19:52:32;;;;;;;1999.90;999.90;;;10.60;99.90;;;;;;6734048;88;20191;-78
2023/04/17 20:02:33;;;;;;;1999.90;999.90;;;10.60;99.90;;;;;;6743924;88;20204;-77
2023/04/17 20:12:33;;;;;;;1999.90;999.90;;;10.40;99.90;;;;;;6727744;88;20683;-77
2023/04/17 20:22:34;;;;;;;1999.90;999.90;;;10.40;99.90;;;;;;6725614;88;20193;-76
2023/04/17 20:32:35;;;;;;;1999.90;999.90;;;10.30;99.90;;;;;;6726812;88;20514;-79
2023/04/17 20:42:36;;;;;;;1999.90;999.90;;;10.30;99.90;;;;;;6745198;76;20196;-79
2023/04/17 20:52:37;;;;;;;1999.90;999.90;;;10.30;99.90;;;;;;6738305;88;20627;-81
2023/04/17 21:02:37;;;;;;;1999.90;999.90;;;10.40;99.90;;;;;;6737335;88;20220;-79
2023/04/17 21:12:40;;;;;;;1999.90;999.90;;;10.40;99.90;;;;;;6739749;88;20709;-81
2023/04/17 21:22:40;;;;;;;1999.90;999.90;;;10.30;99.90;;;;;;6746460;88;20539;-79
2023/04/17 21:32:41;;;;;;;1999.90;999.90;;;10.30;99.90;;;;;;6750453;88;20241;-79
2023/04/17 21:42:41;;;;;;;1999.90;999.90;;;10.20;99.90;;;;;;6747796;88;20224;-79
2023/04/17 21:52:43;;;;;;;1999.90;999.90;;;10.20;99.90;;;;;;6744319;88;20247;-80
2023/04/17 22:02:43;;;;;;;1999.90;999.90;;;10.20;99.90;;;;;;6743341;88;20213;-79
2023/04/17 22:12:44;;;;;;;1999.90;999.90;;;10.10;99.90;;;;;;6726134;88;20205;-79
2023/04/17 22:22:46;;;;;;;1999.90;999.90;;;10.00;99.90;;;;;;6731800;88;20254;-81
2023/04/17 22:32:46;;;;;;;1999.90;999.90;;;9.90;99.90;;;;;;6732887;88;20541;-81
2023/04/17 22:42:49;;;;;;;1999.90;999.90;;;9.90;99.90;;;;;;6734060;88;20193;-80
2023/04/17 22:52:49;;;;;;;1999.90;999.90;;;9.70;99.90;;;;;;6731561;88;20169;-81
2023/04/17 23:02:50;;;;;;;1999.90;999.90;;;9.50;99.90;;;;;;6728966;88;20204;-79
2023/04/17 23:12:50;;;;;;;1999.90;999.90;;;9.40;99.90;;;;;;6733923;88;20315;-80
2023/04/17 23:22:51;;;;;;;1999.90;999.90;;;9.20;99.90;;;;;;6733004;88;20190;-80
2023/04/17 23:32:53;;;;;;;1999.90;999.90;;;9.00;99.90;;;;;;6731596;88;20173;-80
2023/04/17 23:42:53;;;;;;;1999.90;999.90;;;8.90;99.90;;;;;;6726669;88;20661;-80
2023/04/17 23:52:54;;;;;;;1999.90;999.90;;;8.60;99.90;;;;;;6725567;88;20243;-80
